Terminal Aerodrome Forecast
Issued by NWS

Home | Current Version | Previous Version | Text Only | Print | Product List | Glossary On
Versions: 1 2 3 4 5 6 7 8 9 10 11 12 13 14 15
000
FTAK31 PANC 251134
TAFAVD
TAF
PAVD 251134Z 2512/2612 VRB04KT P6SM VCSH SCT020 OVC040
      TEMPO 2512/2516 5SM SHRA SCT003 BKN015 OVC020
     FM252100 25005KT P6SM BKN060
     FM260600 VRB03KT P6SM FEW060
      AMD LTD TO CLD VIS AND WIND=

USA.gov is the U.S. government's official web portal to all federal, state and local government web resources and services.